sensor_id;sensor_type;location;lat;lon;timestamp;P1;durP1;ratioP1;P2;durP2;ratioP2
64957;SDS011;51486;50.232;19.208;2023-06-24T00:01:34;1.77;;;1.37;;
64957;SDS011;51486;50.232;19.208;2023-06-24T00:04:20;3.47;;;1.43;;
64957;SDS011;51486;50.232;19.208;2023-06-24T00:07:06;2.63;;;1.80;;
64957;SDS011;51486;50.232;19.208;2023-06-24T00:09:51;2.37;;;1.37;;
64957;SDS011;51486;50.232;19.208;2023-06-24T00:12:38;1.70;;;1.40;;
64957;SDS011;51486;50.232;19.208;2023-06-24T00:15:24;2.50;;;1.47;;
64957;SDS011;51486;50.232;19.208;2023-06-24T00:18:10;1.33;;;1.00;;
64957;SDS011;51486;50.232;19.208;2023-06-24T00:20:55;2.10;;;1.30;;
64957;SDS011;51486;50.232;19.208;2023-06-24T00:23:41;3.27;;;1.87;;
64957;SDS011;51486;50.232;19.208;2023-06-24T00:26:28;2.77;;;1.77;;
64957;SDS011;51486;50.232;19.208;2023-06-24T00:29:14;2.03;;;1.47;;
64957;SDS011;51486;50.232;19.208;2023-06-24T00:32:00;1.50;;;1.37;;
64957;SDS011;51486;50.232;19.208;2023-06-24T00:34:46;2.80;;;1.90;;
64957;SDS011;51486;50.232;19.208;2023-06-24T00:37:32;4.13;;;1.73;;
64957;SDS011;51486;50.232;19.208;2023-06-24T00:40:18;4.57;;;1.40;;
64957;SDS011;51486;50.232;19.208;2023-06-24T00:43:04;1.73;;;1.00;;
64957;SDS011;51486;50.232;19.208;2023-06-24T00:45:51;1.87;;;1.30;;
64957;SDS011;51486;50.232;19.208;2023-06-24T00:48:38;7.30;;;1.23;;
64957;SDS011;51486;50.232;19.208;2023-06-24T00:51:24;2.33;;;1.50;;
64957;SDS011;51486;50.232;19.208;2023-06-24T00:54:16;5.47;;;1.93;;
64957;SDS011;51486;50.232;19.208;2023-06-24T00:57:02;2.17;;;1.47;;
64957;SDS011;51486;50.232;19.208;2023-06-24T00:59:48;1.57;;;1.20;;
64957;SDS011;51486;50.232;19.208;2023-06-24T01:02:38;3.07;;;1.80;;
64957;SDS011;51486;50.232;19.208;2023-06-24T01:05:24;5.67;;;2.10;;
64957;SDS011;51486;50.232;19.208;2023-06-24T01:08:11;1.87;;;1.27;;
64957;SDS011;51486;50.232;19.208;2023-06-24T01:11:00;5.57;;;1.80;;
64957;SDS011;51486;50.232;19.208;2023-06-24T01:13:46;3.03;;;2.00;;
64957;SDS011;51486;50.232;19.208;2023-06-24T01:29:14;3.30;;;2.00;;
64957;SDS011;51486;50.232;19.208;2023-06-24T01:35:07;1.80;;;1.60;;
64957;SDS011;51486;50.232;19.208;2023-06-24T01:37:57;6.20;;;2.20;;
64957;SDS011;51486;50.232;19.208;2023-06-24T01:40:46;3.13;;;1.90;;
64957;SDS011;51486;50.232;19.208;2023-06-24T01:43:33;6.23;;;2.40;;
64957;SDS011;51486;50.232;19.208;2023-06-24T01:46:24;5.30;;;2.03;;
64957;SDS011;51486;50.232;19.208;2023-06-24T01:49:11;2.03;;;1.50;;
64957;SDS011;51486;50.232;19.208;2023-06-24T01:52:00;1.70;;;1.30;;
64957;SDS011;51486;50.232;19.208;2023-06-24T01:54:47;1.97;;;1.30;;
64957;SDS011;51486;50.232;19.208;2023-06-24T01:57:33;3.77;;;1.67;;
64957;SDS011;51486;50.232;19.208;2023-06-24T02:00:21;2.37;;;1.77;;
64957;SDS011;51486;50.232;19.208;2023-06-24T02:03:09;2.40;;;1.60;;
64957;SDS011;51486;50.232;19.208;2023-06-24T02:05:56;2.70;;;1.70;;
64957;SDS011;51486;50.232;19.208;2023-06-24T02:08:42;1.57;;;1.40;;
64957;SDS011;51486;50.232;19.208;2023-06-24T02:11:28;3.57;;;1.60;;
64957;SDS011;51486;50.232;19.208;2023-06-24T02:14:16;1.60;;;1.37;;
64957;SDS011;51486;50.232;19.208;2023-06-24T02:17:05;1.77;;;1.20;;
64957;SDS011;51486;50.232;19.208;2023-06-24T02:19:53;3.13;;;1.93;;
64957;SDS011;51486;50.232;19.208;2023-06-24T02:22:39;1.63;;;1.30;;
64957;SDS011;51486;50.232;19.208;2023-06-24T02:25:26;1.53;;;1.23;;
64957;SDS011;51486;50.232;19.208;2023-06-24T02:28:12;2.87;;;1.77;;
64957;SDS011;51486;50.232;19.208;2023-06-24T02:30:59;5.40;;;1.87;;
64957;SDS011;51486;50.232;19.208;2023-06-24T02:33:45;2.53;;;1.40;;
64957;SDS011;51486;50.232;19.208;2023-06-24T02:36:30;2.93;;;1.37;;
64957;SDS011;51486;50.232;19.208;2023-06-24T02:39:16;2.17;;;1.37;;
64957;SDS011;51486;50.232;19.208;2023-06-24T02:42:03;1.83;;;1.60;;
64957;SDS011;51486;50.232;19.208;2023-06-24T02:44:49;2.97;;;1.87;;
64957;SDS011;51486;50.232;19.208;2023-06-24T02:47:35;4.13;;;2.07;;
64957;SDS011;51486;50.232;19.208;2023-06-24T02:50:22;4.07;;;2.00;;
64957;SDS011;51486;50.232;19.208;2023-06-24T02:53:08;3.33;;;1.73;;
64957;SDS011;51486;50.232;19.208;2023-06-24T02:55:56;10.00;;;2.13;;
64957;SDS011;51486;50.232;19.208;2023-06-24T02:58:42;5.63;;;2.80;;
64957;SDS011;51486;50.232;19.208;2023-06-24T03:01:29;3.03;;;2.23;;
64957;SDS011;51486;50.232;19.208;2023-06-24T03:04:15;4.27;;;2.50;;
64957;SDS011;51486;50.232;19.208;2023-06-24T03:07:00;6.17;;;1.70;;
64957;SDS011;51486;50.232;19.208;2023-06-24T03:09:48;5.90;;;2.90;;
64957;SDS011;51486;50.232;19.208;2023-06-24T03:12:33;7.10;;;2.60;;
64957;SDS011;51486;50.232;19.208;2023-06-24T03:15:19;5.60;;;2.60;;
64957;SDS011;51486;50.232;19.208;2023-06-24T03:18:05;5.37;;;3.07;;
64957;SDS011;51486;50.232;19.208;2023-06-24T03:20:51;6.30;;;3.03;;
64957;SDS011;51486;50.232;19.208;2023-06-24T03:23:37;7.40;;;3.30;;
64957;SDS011;51486;50.232;19.208;2023-06-24T03:26:34;4.77;;;3.23;;
64957;SDS011;51486;50.232;19.208;2023-06-24T03:29:21;7.97;;;2.63;;
64957;SDS011;51486;50.232;19.208;2023-06-24T03:32:07;15.10;;;3.00;;
64957;SDS011;51486;50.232;19.208;2023-06-24T03:34:53;11.00;;;4.17;;
64957;SDS011;51486;50.232;19.208;2023-06-24T03:37:38;4.43;;;2.80;;
64957;SDS011;51486;50.232;19.208;2023-06-24T03:40:24;3.70;;;2.57;;
64957;SDS011;51486;50.232;19.208;2023-06-24T03:43:10;4.70;;;3.00;;
64957;SDS011;51486;50.232;19.208;2023-06-24T03:45:55;5.20;;;2.97;;
64957;SDS011;51486;50.232;19.208;2023-06-24T03:48:42;4.43;;;3.00;;
64957;SDS011;51486;50.232;19.208;2023-06-24T03:51:28;5.43;;;2.93;;
64957;SDS011;51486;50.232;19.208;2023-06-24T03:54:14;8.33;;;3.30;;
64957;SDS011;51486;50.232;19.208;2023-06-24T03:57:00;5.23;;;3.33;;
64957;SDS011;51486;50.232;19.208;2023-06-24T03:59:45;4.53;;;2.70;;
64957;SDS011;51486;50.232;19.208;2023-06-24T04:02:31;5.97;;;3.60;;
64957;SDS011;51486;50.232;19.208;2023-06-24T04:05:18;6.30;;;3.60;;
64957;SDS011;51486;50.232;19.208;2023-06-24T04:08:03;7.43;;;3.77;;
64957;SDS011;51486;50.232;19.208;2023-06-24T04:10:51;24.17;;;3.57;;
64957;SDS011;51486;50.232;19.208;2023-06-24T04:13:37;7.80;;;4.27;;
64957;SDS011;51486;50.232;19.208;2023-06-24T04:16:22;8.30;;;4.60;;
64957;SDS011;51486;50.232;19.208;2023-06-24T04:19:08;9.93;;;3.93;;
64957;SDS011;51486;50.232;19.208;2023-06-24T04:21:54;7.03;;;3.87;;
64957;SDS011;51486;50.232;19.208;2023-06-24T04:24:40;8.33;;;4.67;;
64957;SDS011;51486;50.232;19.208;2023-06-24T04:27:25;12.57;;;4.87;;
64957;SDS011;51486;50.232;19.208;2023-06-24T04:30:11;7.47;;;3.67;;
64957;SDS011;51486;50.232;19.208;2023-06-24T04:32:57;8.70;;;3.90;;
64957;SDS011;51486;50.232;19.208;2023-06-24T04:35:43;10.17;;;4.20;;
64957;SDS011;51486;50.232;19.208;2023-06-24T04:38:29;5.90;;;3.80;;
64957;SDS011;51486;50.232;19.208;2023-06-24T04:41:15;5.63;;;3.37;;
64957;SDS011;51486;50.232;19.208;2023-06-24T04:44:01;11.10;;;4.03;;
64957;SDS011;51486;50.232;19.208;2023-06-24T04:46:46;10.30;;;4.80;;
64957;SDS011;51486;50.232;19.208;2023-06-24T04:49:32;12.37;;;4.93;;
64957;SDS011;51486;50.232;19.208;2023-06-24T04:52:18;10.73;;;4.53;;
64957;SDS011;51486;50.232;19.208;2023-06-24T04:55:04;9.03;;;5.07;;
64957;SDS011;51486;50.232;19.208;2023-06-24T04:57:50;9.50;;;4.90;;
64957;SDS011;51486;50.232;19.208;2023-06-24T05:00:36;13.57;;;6.17;;
64957;SDS011;51486;50.232;19.208;2023-06-24T05:03:22;17.60;;;7.17;;
64957;SDS011;51486;50.232;19.208;2023-06-24T05:06:07;16.07;;;8.33;;
64957;SDS011;51486;50.232;19.208;2023-06-24T05:08:53;15.43;;;7.27;;
64957;SDS011;51486;50.232;19.208;2023-06-24T05:11:39;21.70;;;7.63;;
64957;SDS011;51486;50.232;19.208;2023-06-24T05:14:25;20.60;;;8.47;;
64957;SDS011;51486;50.232;19.208;2023-06-24T05:17:11;18.73;;;7.60;;
64957;SDS011;51486;50.232;19.208;2023-06-24T05:19:57;17.57;;;8.27;;
64957;SDS011;51486;50.232;19.208;2023-06-24T05:22:43;23.63;;;7.27;;
64957;SDS011;51486;50.232;19.208;2023-06-24T05:25:29;18.87;;;7.77;;
64957;SDS011;51486;50.232;19.208;2023-06-24T05:28:16;17.93;;;9.40;;
64957;SDS011;51486;50.232;19.208;2023-06-24T05:31:02;25.57;;;8.00;;
64957;SDS011;51486;50.232;19.208;2023-06-24T05:33:47;12.60;;;7.60;;
64957;SDS011;51486;50.232;19.208;2023-06-24T05:36:33;14.57;;;7.27;;
64957;SDS011;51486;50.232;19.208;2023-06-24T05:39:20;17.33;;;7.27;;
64957;SDS011;51486;50.232;19.208;2023-06-24T05:42:05;20.97;;;8.17;;
64957;SDS011;51486;50.232;19.208;2023-06-24T05:44:51;19.67;;;6.90;;
64957;SDS011;51486;50.232;19.208;2023-06-24T05:47:37;24.33;;;7.27;;
64957;SDS011;51486;50.232;19.208;2023-06-24T05:50:23;23.20;;;8.50;;
64957;SDS011;51486;50.232;19.208;2023-06-24T05:53:09;14.00;;;7.33;;
64957;SDS011;51486;50.232;19.208;2023-06-24T05:55:54;16.23;;;7.93;;
64957;SDS011;51486;50.232;19.208;2023-06-24T05:58:40;38.60;;;8.73;;
64957;SDS011;51486;50.232;19.208;2023-06-24T06:01:26;17.27;;;7.87;;
64957;SDS011;51486;50.232;19.208;2023-06-24T06:04:12;15.50;;;8.20;;
64957;SDS011;51486;50.232;19.208;2023-06-24T06:06:57;15.83;;;7.40;;
64957;SDS011;51486;50.232;19.208;2023-06-24T06:09:43;14.30;;;7.13;;
64957;SDS011;51486;50.232;19.208;2023-06-24T06:12:29;16.03;;;7.43;;
64957;SDS011;51486;50.232;19.208;2023-06-24T06:15:15;19.43;;;7.47;;
64957;SDS011;51486;50.232;19.208;2023-06-24T06:18:00;12.93;;;6.23;;
64957;SDS011;51486;50.232;19.208;2023-06-24T06:20:46;19.17;;;7.30;;
64957;SDS011;51486;50.232;19.208;2023-06-24T06:23:32;15.10;;;7.53;;
64957;SDS011;51486;50.232;19.208;2023-06-24T06:26:18;14.23;;;6.73;;
64957;SDS011;51486;50.232;19.208;2023-06-24T06:29:03;15.67;;;6.53;;
64957;SDS011;51486;50.232;19.208;2023-06-24T06:31:49;10.37;;;5.93;;
64957;SDS011;51486;50.232;19.208;2023-06-24T06:34:35;13.60;;;7.07;;
64957;SDS011;51486;50.232;19.208;2023-06-24T06:37:20;12.87;;;6.37;;
64957;SDS011;51486;50.232;19.208;2023-06-24T06:40:06;9.27;;;5.60;;
64957;SDS011;51486;50.232;19.208;2023-06-24T06:42:52;15.43;;;7.17;;
64957;SDS011;51486;50.232;19.208;2023-06-24T06:45:38;10.43;;;5.67;;
64957;SDS011;51486;50.232;19.208;2023-06-24T06:48:24;11.33;;;6.13;;
64957;SDS011;51486;50.232;19.208;2023-06-24T06:51:10;13.77;;;5.77;;
64957;SDS011;51486;50.232;19.208;2023-06-24T06:53:55;7.60;;;4.73;;
64957;SDS011;51486;50.232;19.208;2023-06-24T06:56:41;8.17;;;4.13;;
64957;SDS011;51486;50.232;19.208;2023-06-24T06:59:27;8.40;;;4.07;;
64957;SDS011;51486;50.232;19.208;2023-06-24T07:02:13;7.33;;;3.60;;
64957;SDS011;51486;50.232;19.208;2023-06-24T07:04:59;5.67;;;3.73;;
64957;SDS011;51486;50.232;19.208;2023-06-24T07:07:46;8.83;;;4.20;;
64957;SDS011;51486;50.232;19.208;2023-06-24T07:10:32;6.17;;;3.90;;
64957;SDS011;51486;50.232;19.208;2023-06-24T07:13:17;6.83;;;4.13;;
64957;SDS011;51486;50.232;19.208;2023-06-24T07:16:03;7.67;;;4.33;;
64957;SDS011;51486;50.232;19.208;2023-06-24T07:18:49;6.80;;;3.87;;
64957;SDS011;51486;50.232;19.208;2023-06-24T07:21:34;5.43;;;3.50;;
64957;SDS011;51486;50.232;19.208;2023-06-24T07:24:20;6.83;;;4.00;;
64957;SDS011;51486;50.232;19.208;2023-06-24T07:27:06;11.80;;;4.03;;
64957;SDS011;51486;50.232;19.208;2023-06-24T07:29:52;10.37;;;4.10;;
64957;SDS011;51486;50.232;19.208;2023-06-24T07:32:37;9.33;;;3.47;;
64957;SDS011;51486;50.232;19.208;2023-06-24T07:35:23;5.13;;;3.30;;
64957;SDS011;51486;50.232;19.208;2023-06-24T07:38:09;4.50;;;3.20;;
64957;SDS011;51486;50.232;19.208;2023-06-24T07:40:54;4.30;;;3.00;;
64957;SDS011;51486;50.232;19.208;2023-06-24T07:43:40;5.03;;;2.90;;
64957;SDS011;51486;50.232;19.208;2023-06-24T07:46:26;6.23;;;2.47;;
64957;SDS011;51486;50.232;19.208;2023-06-24T07:49:13;4.23;;;2.37;;
64957;SDS011;51486;50.232;19.208;2023-06-24T07:51:58;5.37;;;3.00;;
64957;SDS011;51486;50.232;19.208;2023-06-24T07:54:44;4.67;;;2.40;;
64957;SDS011;51486;50.232;19.208;2023-06-24T07:57:30;5.20;;;2.67;;
64957;SDS011;51486;50.232;19.208;2023-06-24T08:00:16;6.77;;;2.60;;
64957;SDS011;51486;50.232;19.208;2023-06-24T08:03:03;6.67;;;2.60;;
64957;SDS011;51486;50.232;19.208;2023-06-24T08:05:48;5.23;;;2.33;;
64957;SDS011;51486;50.232;19.208;2023-06-24T08:08:35;5.20;;;2.80;;
64957;SDS011;51486;50.232;19.208;2023-06-24T08:11:21;3.47;;;2.30;;
64957;SDS011;51486;50.232;19.208;2023-06-24T08:14:07;6.87;;;2.87;;
64957;SDS011;51486;50.232;19.208;2023-06-24T08:16:52;8.53;;;2.57;;
64957;SDS011;51486;50.232;19.208;2023-06-24T08:19:38;2.83;;;2.00;;
64957;SDS011;51486;50.232;19.208;2023-06-24T08:22:24;7.63;;;2.33;;
64957;SDS011;51486;50.232;19.208;2023-06-24T08:25:09;1.90;;;1.50;;
64957;SDS011;51486;50.232;19.208;2023-06-24T08:27:55;3.63;;;2.20;;
64957;SDS011;51486;50.232;19.208;2023-06-24T08:30:41;5.03;;;2.50;;
64957;SDS011;51486;50.232;19.208;2023-06-24T08:33:27;4.03;;;2.03;;
64957;SDS011;51486;50.232;19.208;2023-06-24T08:36:12;3.43;;;1.77;;
64957;SDS011;51486;50.232;19.208;2023-06-24T08:38:58;4.93;;;2.37;;
64957;SDS011;51486;50.232;19.208;2023-06-24T08:41:44;2.77;;;2.17;;
64957;SDS011;51486;50.232;19.208;2023-06-24T08:44:30;3.20;;;1.87;;
64957;SDS011;51486;50.232;19.208;2023-06-24T08:47:16;8.20;;;2.57;;
64957;SDS011;51486;50.232;19.208;2023-06-24T08:50:12;8.77;;;2.23;;
64957;SDS011;51486;50.232;19.208;2023-06-24T08:52:59;3.40;;;2.30;;
64957;SDS011;51486;50.232;19.208;2023-06-24T08:55:48;4.27;;;2.60;;
64957;SDS011;51486;50.232;19.208;2023-06-24T08:58:35;7.93;;;2.83;;
64957;SDS011;51486;50.232;19.208;2023-06-24T09:01:21;6.30;;;2.80;;
64957;SDS011;51486;50.232;19.208;2023-06-24T09:04:06;3.83;;;2.70;;
64957;SDS011;51486;50.232;19.208;2023-06-24T09:06:52;4.10;;;2.43;;
64957;SDS011;51486;50.232;19.208;2023-06-24T09:09:42;5.27;;;2.57;;
64957;SDS011;51486;50.232;19.208;2023-06-24T09:12:31;3.73;;;2.40;;
64957;SDS011;51486;50.232;19.208;2023-06-24T09:15:18;4.90;;;2.87;;
64957;SDS011;51486;50.232;19.208;2023-06-24T09:18:05;6.40;;;3.37;;
64957;SDS011;51486;50.232;19.208;2023-06-24T09:20:51;7.60;;;3.27;;
64957;SDS011;51486;50.232;19.208;2023-06-24T09:23:40;6.50;;;3.00;;
64957;SDS011;51486;50.232;19.208;2023-06-24T09:26:27;3.53;;;2.77;;
64957;SDS011;51486;50.232;19.208;2023-06-24T09:29:15;3.67;;;2.30;;
64957;SDS011;51486;50.232;19.208;2023-06-24T09:32:03;3.97;;;2.30;;
64957;SDS011;51486;50.232;19.208;2023-06-24T09:34:49;4.20;;;2.77;;
64957;SDS011;51486;50.232;19.208;2023-06-24T09:37:35;5.23;;;2.63;;
64957;SDS011;51486;50.232;19.208;2023-06-24T09:40:21;4.70;;;2.97;;
64957;SDS011;51486;50.232;19.208;2023-06-24T09:43:08;3.97;;;2.67;;
64957;SDS011;51486;50.232;19.208;2023-06-24T09:45:54;4.33;;;2.40;;
64957;SDS011;51486;50.232;19.208;2023-06-24T09:48:40;7.00;;;2.30;;
64957;SDS011;51486;50.232;19.208;2023-06-24T09:51:26;4.77;;;2.67;;
64957;SDS011;51486;50.232;19.208;2023-06-24T09:54:13;4.37;;;2.60;;
64957;SDS011;51486;50.232;19.208;2023-06-24T09:57:01;3.80;;;2.40;;
64957;SDS011;51486;50.232;19.208;2023-06-24T09:59:48;4.57;;;2.63;;
64957;SDS011;51486;50.232;19.208;2023-06-24T10:02:34;5.90;;;2.57;;
64957;SDS011;51486;50.232;19.208;2023-06-24T10:05:20;4.20;;;2.33;;
64957;SDS011;51486;50.232;19.208;2023-06-24T10:08:06;4.73;;;2.43;;
64957;SDS011;51486;50.232;19.208;2023-06-24T10:10:52;2.93;;;2.30;;
64957;SDS011;51486;50.232;19.208;2023-06-24T10:13:38;4.20;;;2.73;;
64957;SDS011;51486;50.232;19.208;2023-06-24T10:16:23;3.80;;;2.10;;
64957;SDS011;51486;50.232;19.208;2023-06-24T10:19:09;5.80;;;2.77;;
64957;SDS011;51486;50.232;19.208;2023-06-24T10:21:58;5.60;;;2.43;;
64957;SDS011;51486;50.232;19.208;2023-06-24T10:24:46;3.90;;;2.30;;
64957;SDS011;51486;50.232;19.208;2023-06-24T10:27:37;3.70;;;2.30;;
64957;SDS011;51486;50.232;19.208;2023-06-24T10:30:27;3.97;;;2.40;;
64957;SDS011;51486;50.232;19.208;2023-06-24T10:33:14;9.30;;;2.50;;
64957;SDS011;51486;50.232;19.208;2023-06-24T10:36:01;3.67;;;2.27;;
64957;SDS011;51486;50.232;19.208;2023-06-24T10:38:55;4.63;;;2.43;;
64957;SDS011;51486;50.232;19.208;2023-06-24T10:41:40;6.33;;;2.17;;
64957;SDS011;51486;50.232;19.208;2023-06-24T10:44:26;4.30;;;2.53;;
64957;SDS011;51486;50.232;19.208;2023-06-24T10:47:12;4.53;;;2.73;;
64957;SDS011;51486;50.232;19.208;2023-06-24T10:49:58;7.57;;;3.07;;
64957;SDS011;51486;50.232;19.208;2023-06-24T10:52:47;7.13;;;3.43;;
64957;SDS011;51486;50.232;19.208;2023-06-24T10:55:35;4.53;;;2.40;;
64957;SDS011;51486;50.232;19.208;2023-06-24T10:58:21;5.23;;;2.53;;
64957;SDS011;51486;50.232;19.208;2023-06-24T11:01:07;4.47;;;2.87;;
64957;SDS011;51486;50.232;19.208;2023-06-24T11:03:54;4.60;;;2.80;;
64957;SDS011;51486;50.232;19.208;2023-06-24T11:06:39;4.73;;;2.47;;
64957;SDS011;51486;50.232;19.208;2023-06-24T11:09:25;3.40;;;2.13;;
64957;SDS011;51486;50.232;19.208;2023-06-24T11:12:11;4.93;;;2.60;;
64957;SDS011;51486;50.232;19.208;2023-06-24T11:14:57;4.53;;;2.70;;
64957;SDS011;51486;50.232;19.208;2023-06-24T11:17:44;6.83;;;2.93;;
64957;SDS011;51486;50.232;19.208;2023-06-24T11:20:30;7.53;;;3.23;;
64957;SDS011;51486;50.232;19.208;2023-06-24T11:23:15;4.53;;;2.47;;
64957;SDS011;51486;50.232;19.208;2023-06-24T11:26:02;7.67;;;2.43;;
64957;SDS011;51486;50.232;19.208;2023-06-24T11:28:48;5.43;;;2.30;;
64957;SDS011;51486;50.232;19.208;2023-06-24T11:31:34;4.57;;;2.90;;
64957;SDS011;51486;50.232;19.208;2023-06-24T11:34:21;10.23;;;3.10;;
64957;SDS011;51486;50.232;19.208;2023-06-24T11:37:14;6.73;;;3.03;;
64957;SDS011;51486;50.232;19.208;2023-06-24T11:40:01;3.93;;;2.47;;
64957;SDS011;51486;50.232;19.208;2023-06-24T11:42:51;5.40;;;2.53;;
64957;SDS011;51486;50.232;19.208;2023-06-24T11:45:37;3.57;;;2.67;;
64957;SDS011;51486;50.232;19.208;2023-06-24T11:48:26;4.50;;;2.57;;
64957;SDS011;51486;50.232;19.208;2023-06-24T11:51:13;5.67;;;3.47;;
64957;SDS011;51486;50.232;19.208;2023-06-24T11:54:00;5.00;;;3.10;;
64957;SDS011;51486;50.232;19.208;2023-06-24T11:56:50;7.47;;;2.60;;
64957;SDS011;51486;50.232;19.208;2023-06-24T11:59:37;8.33;;;2.70;;
64957;SDS011;51486;50.232;19.208;2023-06-24T12:02:23;13.00;;;2.80;;
64957;SDS011;51486;50.232;19.208;2023-06-24T12:05:08;8.50;;;2.97;;
64957;SDS011;51486;50.232;19.208;2023-06-24T12:07:55;7.50;;;2.93;;
64957;SDS011;51486;50.232;19.208;2023-06-24T12:10:42;6.07;;;3.23;;
64957;SDS011;51486;50.232;19.208;2023-06-24T12:13:29;4.63;;;2.73;;
64957;SDS011;51486;50.232;19.208;2023-06-24T12:16:15;6.07;;;2.23;;
64957;SDS011;51486;50.232;19.208;2023-06-24T12:19:01;4.30;;;2.70;;
64957;SDS011;51486;50.232;19.208;2023-06-24T12:21:47;5.50;;;3.00;;
64957;SDS011;51486;50.232;19.208;2023-06-24T12:24:33;8.17;;;3.17;;
64957;SDS011;51486;50.232;19.208;2023-06-24T12:27:19;5.10;;;2.67;;
64957;SDS011;51486;50.232;19.208;2023-06-24T12:30:06;6.93;;;3.03;;
64957;SDS011;51486;50.232;19.208;2023-06-24T12:32:52;7.73;;;3.03;;
64957;SDS011;51486;50.232;19.208;2023-06-24T12:35:38;4.63;;;2.80;;
64957;SDS011;51486;50.232;19.208;2023-06-24T12:38:24;6.13;;;2.97;;
64957;SDS011;51486;50.232;19.208;2023-06-24T12:41:09;6.17;;;3.10;;
64957;SDS011;51486;50.232;19.208;2023-06-24T12:43:55;6.63;;;2.83;;
64957;SDS011;51486;50.232;19.208;2023-06-24T12:46:41;5.07;;;2.90;;
64957;SDS011;51486;50.232;19.208;2023-06-24T12:49:27;5.00;;;2.67;;
64957;SDS011;51486;50.232;19.208;2023-06-24T12:52:13;6.00;;;3.00;;
64957;SDS011;51486;50.232;19.208;2023-06-24T12:54:59;6.37;;;2.63;;
64957;SDS011;51486;50.232;19.208;2023-06-24T12:57:45;4.23;;;2.63;;
64957;SDS011;51486;50.232;19.208;2023-06-24T13:00:30;3.93;;;2.20;;
64957;SDS011;51486;50.232;19.208;2023-06-24T13:03:16;4.97;;;2.40;;
64957;SDS011;51486;50.232;19.208;2023-06-24T13:06:02;4.17;;;2.70;;
64957;SDS011;51486;50.232;19.208;2023-06-24T13:08:48;2.87;;;2.07;;
64957;SDS011;51486;50.232;19.208;2023-06-24T13:11:33;3.27;;;1.93;;
64957;SDS011;51486;50.232;19.208;2023-06-24T13:14:19;3.20;;;2.17;;
64957;SDS011;51486;50.232;19.208;2023-06-24T13:17:05;4.23;;;2.47;;
64957;SDS011;51486;50.232;19.208;2023-06-24T13:19:51;3.50;;;2.03;;
64957;SDS011;51486;50.232;19.208;2023-06-24T13:22:37;5.07;;;1.93;;
64957;SDS011;51486;50.232;19.208;2023-06-24T13:25:23;3.60;;;1.90;;
64957;SDS011;51486;50.232;19.208;2023-06-24T13:28:08;6.60;;;2.27;;
64957;SDS011;51486;50.232;19.208;2023-06-24T13:30:54;4.00;;;2.40;;
64957;SDS011;51486;50.232;19.208;2023-06-24T13:33:40;3.50;;;2.13;;
64957;SDS011;51486;50.232;19.208;2023-06-24T13:36:36;5.03;;;2.57;;
64957;SDS011;51486;50.232;19.208;2023-06-24T13:39:22;5.57;;;2.53;;
64957;SDS011;51486;50.232;19.208;2023-06-24T13:42:09;8.57;;;3.33;;
64957;SDS011;51486;50.232;19.208;2023-06-24T13:44:54;4.43;;;2.80;;
64957;SDS011;51486;50.232;19.208;2023-06-24T13:47:40;3.47;;;2.43;;
64957;SDS011;51486;50.232;19.208;2023-06-24T13:50:26;11.77;;;2.97;;
64957;SDS011;51486;50.232;19.208;2023-06-24T13:53:12;5.07;;;2.63;;
64957;SDS011;51486;50.232;19.208;2023-06-24T13:55:57;4.37;;;2.80;;
64957;SDS011;51486;50.232;19.208;2023-06-24T13:58:43;5.53;;;2.50;;
64957;SDS011;51486;50.232;19.208;2023-06-24T14:01:29;4.23;;;2.67;;
64957;SDS011;51486;50.232;19.208;2023-06-24T14:04:16;4.00;;;2.17;;
64957;SDS011;51486;50.232;19.208;2023-06-24T14:07:02;5.90;;;2.93;;
64957;SDS011;51486;50.232;19.208;2023-06-24T14:09:50;5.03;;;2.70;;
64957;SDS011;51486;50.232;19.208;2023-06-24T14:12:35;5.90;;;2.80;;
64957;SDS011;51486;50.232;19.208;2023-06-24T14:15:22;5.60;;;2.83;;
64957;SDS011;51486;50.232;19.208;2023-06-24T14:18:08;4.90;;;2.80;;
64957;SDS011;51486;50.232;19.208;2023-06-24T14:20:54;6.40;;;2.90;;
64957;SDS011;51486;50.232;19.208;2023-06-24T14:23:39;7.90;;;2.50;;
64957;SDS011;51486;50.232;19.208;2023-06-24T14:26:25;3.23;;;2.13;;
64957;SDS011;51486;50.232;19.208;2023-06-24T14:29:11;4.30;;;2.50;;
64957;SDS011;51486;50.232;19.208;2023-06-24T14:31:57;3.10;;;1.90;;
64957;SDS011;51486;50.232;19.208;2023-06-24T14:34:42;4.10;;;2.20;;
64957;SDS011;51486;50.232;19.208;2023-06-24T14:37:28;5.87;;;2.33;;
64957;SDS011;51486;50.232;19.208;2023-06-24T14:40:14;3.37;;;1.83;;
64957;SDS011;51486;50.232;19.208;2023-06-24T14:43:00;4.30;;;2.20;;
64957;SDS011;51486;50.232;19.208;2023-06-24T14:45:45;3.90;;;1.90;;
64957;SDS011;51486;50.232;19.208;2023-06-24T14:48:31;3.70;;;1.90;;
64957;SDS011;51486;50.232;19.208;2023-06-24T14:51:17;4.67;;;2.30;;
64957;SDS011;51486;50.232;19.208;2023-06-24T14:54:03;6.33;;;2.30;;
64957;SDS011;51486;50.232;19.208;2023-06-24T14:56:48;5.63;;;2.53;;
64957;SDS011;51486;50.232;19.208;2023-06-24T14:59:34;2.77;;;1.80;;
64957;SDS011;51486;50.232;19.208;2023-06-24T15:02:20;2.70;;;1.87;;
64957;SDS011;51486;50.232;19.208;2023-06-24T15:05:05;3.23;;;1.87;;
64957;SDS011;51486;50.232;19.208;2023-06-24T15:07:51;3.10;;;1.57;;
64957;SDS011;51486;50.232;19.208;2023-06-24T15:10:37;6.70;;;1.80;;
64957;SDS011;51486;50.232;19.208;2023-06-24T15:13:23;3.17;;;1.40;;
64957;SDS011;51486;50.232;19.208;2023-06-24T15:16:08;3.13;;;1.70;;
64957;SDS011;51486;50.232;19.208;2023-06-24T15:18:54;2.87;;;2.00;;
64957;SDS011;51486;50.232;19.208;2023-06-24T15:21:40;2.60;;;1.80;;
64957;SDS011;51486;50.232;19.208;2023-06-24T15:24:26;2.30;;;1.90;;
64957;SDS011;51486;50.232;19.208;2023-06-24T15:27:11;2.93;;;1.43;;
64957;SDS011;51486;50.232;19.208;2023-06-24T15:29:57;5.37;;;2.00;;
64957;SDS011;51486;50.232;19.208;2023-06-24T15:32:43;2.43;;;1.83;;
64957;SDS011;51486;50.232;19.208;2023-06-24T15:35:30;4.53;;;1.67;;
64957;SDS011;51486;50.232;19.208;2023-06-24T15:38:16;2.97;;;1.87;;
64957;SDS011;51486;50.232;19.208;2023-06-24T15:41:02;3.60;;;1.90;;
64957;SDS011;51486;50.232;19.208;2023-06-24T15:43:47;9.93;;;1.80;;
64957;SDS011;51486;50.232;19.208;2023-06-24T15:46:33;3.00;;;1.60;;
64957;SDS011;51486;50.232;19.208;2023-06-24T15:49:19;5.03;;;1.60;;
64957;SDS011;51486;50.232;19.208;2023-06-24T15:52:05;2.77;;;1.30;;
64957;SDS011;51486;50.232;19.208;2023-06-24T15:54:50;1.50;;;1.40;;
64957;SDS011;51486;50.232;19.208;2023-06-24T15:57:36;2.77;;;1.73;;
64957;SDS011;51486;50.232;19.208;2023-06-24T16:00:22;2.03;;;1.47;;
64957;SDS011;51486;50.232;19.208;2023-06-24T16:03:07;2.80;;;1.83;;
64957;SDS011;51486;50.232;19.208;2023-06-24T16:05:53;2.30;;;1.43;;
64957;SDS011;51486;50.232;19.208;2023-06-24T16:08:39;2.33;;;1.60;;
64957;SDS011;51486;50.232;19.208;2023-06-24T16:11:25;7.60;;;1.60;;
64957;SDS011;51486;50.232;19.208;2023-06-24T16:14:10;5.10;;;2.10;;
64957;SDS011;51486;50.232;19.208;2023-06-24T16:16:56;3.97;;;1.70;;
64957;SDS011;51486;50.232;19.208;2023-06-24T16:19:42;1.50;;;1.40;;
64957;SDS011;51486;50.232;19.208;2023-06-24T16:22:27;3.27;;;1.77;;
64957;SDS011;51486;50.232;19.208;2023-06-24T16:25:13;4.73;;;1.70;;
64957;SDS011;51486;50.232;19.208;2023-06-24T16:28:00;1.60;;;1.30;;
64957;SDS011;51486;50.232;19.208;2023-06-24T16:30:46;2.57;;;1.87;;
64957;SDS011;51486;50.232;19.208;2023-06-24T16:33:32;4.57;;;1.30;;
64957;SDS011;51486;50.232;19.208;2023-06-24T16:36:18;3.77;;;1.87;;
64957;SDS011;51486;50.232;19.208;2023-06-24T16:39:04;2.60;;;1.70;;
64957;SDS011;51486;50.232;19.208;2023-06-24T16:41:50;3.00;;;1.73;;